»·PEaware :: SWA11 KLAS-KLAX

SWA11 :: KLAS-KLAX

FLIGHT INFORMATION

Flight Status: Arrived
Operator:
Southwest Airlines
More flights by this operator :: More flights under this callsign
Pilot: Isaac A. (22370)
Aircraft: BOEING 737-700
(B737)
More flights by this aircraft type
Origin: KLAS McCarran Intl
United States
Destination: KLAX Los Angeles Intl
United States
More flights between these airports :: More routes between these airports
Route: +BOACH8 RIKII SHTNR ANJLL2
File this flight plan on PilotEdge
Remarks: PBN / A1B1C1D1S1S2 NAV / RNVD1E2A1 REG / N714SB RMK / SIMBRIEF
Altitude:
(Current/Filed)
38,000ft
Speed:
(Current/Filed)
448kts
Departed: 02-Dec-18 01:08 PM
Arrived: 02-Dec-18 01:54 PM
Distance/Time
Traveled:
205nm/0:46
Distance/Time
To Go:
Arrived

Flight Plot

Page will automatically refresh every two minutes.

Flight plan parsing failed; only flown route is shown


Map Options




Map Legend


Flown Route
Filed Route
Departure Airport
Arrival Airport
Navaid (VOR, NDB)
Fix

Horizontal Profiles

Position Reports

Time Latitude Longitude Heading Altitude Ground
Speed
02-Dec-18 12:31 36.080509 -115.145705 251 2188ft 0kts
02-Dec-18 12:32 36.080509 -115.145705 251 2188ft 0kts
02-Dec-18 12:33 36.080509 -115.145705 251 2188ft 0kts
02-Dec-18 12:34 36.080509 -115.145705 251 2188ft 0kts
02-Dec-18 12:35 36.080509 -115.145705 251 2188ft 0kts
02-Dec-18 12:36 36.080509 -115.145705 251 2188ft 0kts
02-Dec-18 12:37 36.080509 -115.145705 251 2188ft 0kts
02-Dec-18 12:38 36.080509 -115.145705 251 2188ft 0kts
02-Dec-18 12:39 36.080509 -115.145705 251 2188ft 0kts
02-Dec-18 12:40 36.080509 -115.145705 251 2188ft 0kts
02-Dec-18 12:41 36.080509 -115.145705 251 2188ft 0kts
02-Dec-18 12:42 36.080509 -115.145705 251 2188ft 0kts
02-Dec-18 12:43 36.080509 -115.145705 251 2188ft 0kts
02-Dec-18 12:44 36.080509 -115.145705 251 2188ft 0kts
02-Dec-18 12:45 36.080509 -115.145705 251 2188ft 0kts
02-Dec-18 12:46 36.080509 -115.145705 251 2188ft 0kts
02-Dec-18 12:47 36.080509 -115.145705 251 2188ft 0kts
02-Dec-18 12:48 36.080509 -115.145705 251 2188ft 0kts
02-Dec-18 12:49 36.080509 -115.145705 251 2188ft 0kts
02-Dec-18 12:50 36.080509 -115.145705 251 2188ft 0kts
02-Dec-18 12:51 36.080509 -115.145705 251 2188ft 0kts
02-Dec-18 12:52 36.080509 -115.145705 251 2188ft 0kts
02-Dec-18 12:53 36.080509 -115.145705 251 2188ft 0kts
02-Dec-18 12:54 36.080509 -115.145705 251 2188ft 0kts
02-Dec-18 12:55 36.080509 -115.145705 251 2188ft 0kts
02-Dec-18 12:56 36.080509 -115.145705 251 2188ft 0kts
02-Dec-18 12:57 36.080509 -115.145705 251 2188ft 0kts
02-Dec-18 12:58 36.080509 -115.145705 251 2188ft 0kts
02-Dec-18 12:59 36.080638 -115.145294 242 2188ft 2kts
02-Dec-18 13:00 36.081083 -115.144947 158 2188ft 1kts
02-Dec-18 13:01 36.081087 -115.144949 158 2189ft 0kts
02-Dec-18 13:02 36.080889 -115.144852 158 2188ft 2kts
02-Dec-18 13:03 36.078124 -115.144475 179 2188ft 9kts
02-Dec-18 13:04 36.077482 -115.140620 90 2188ft 21kts
02-Dec-18 13:05 36.077528 -115.132479 91 2188ft 24kts
02-Dec-18 13:06 36.077534 -115.126154 90 2188ft 19kts
02-Dec-18 13:07 36.077147 -115.121321 172 2188ft 0kts
02-Dec-18 13:08 36.077145 -115.121320 172 2188ft 0kts
02-Dec-18 13:09 36.077143 -115.121320 172 2188ft 0kts
02-Dec-18 13:10 36.076446 -115.121488 239 2188ft 8kts
02-Dec-18 13:11 36.076314 -115.155809 269 2591ft 184kts
02-Dec-18 13:12 36.076129 -115.212907 273 5640ft 180kts
02-Dec-18 13:13 36.051448 -115.269921 198 7076ft 256kts
02-Dec-18 13:14 35.977164 -115.297960 198 7111ft 282kts
02-Dec-18 13:15 35.896748 -115.310509 187 10610ft 303kts
02-Dec-18 13:16 35.802781 -115.309515 178 13175ft 365kts
02-Dec-18 13:17 35.697727 -115.296857 182 16414ft 393kts
02-Dec-18 13:18 35.587025 -115.298006 194 19596ft 403kts
02-Dec-18 13:19 35.480039 -115.321909 220 22466ft 381kts
02-Dec-18 13:20 35.388807 -115.386540 224 23709ft 377kts
02-Dec-18 13:21 35.302177 -115.449608 225 27422ft 354kts
02-Dec-18 13:22 35.217000 -115.511216 226 28083ft 352kts
02-Dec-18 13:23 35.132419 -115.574231 231 28100ft 367kts
02-Dec-18 13:24 35.058356 -115.663045 238 28099ft 374kts
02-Dec-18 13:25 34.986500 -115.754845 238 28104ft 375kts
02-Dec-18 13:26 34.914253 -115.846975 238 28110ft 375kts
02-Dec-18 13:27 34.842623 -115.938557 238 28116ft 370kts
02-Dec-18 13:28 34.771278 -116.029520 237 28119ft 373kts
02-Dec-18 13:29 34.699249 -116.120968 237 28122ft 376kts
02-Dec-18 13:30 34.626581 -116.213102 237 28117ft 376kts
02-Dec-18 13:31 34.554238 -116.304548 237 28119ft 376kts
02-Dec-18 13:32 34.481418 -116.396035 237 28118ft 376kts
02-Dec-18 13:33 34.415998 -116.486138 247 28108ft 363kts
02-Dec-18 13:34 34.369683 -116.592205 252 27608ft 348kts
02-Dec-18 13:35 34.326428 -116.697045 252 24974ft 346kts
02-Dec-18 13:36 34.285109 -116.800090 251 22676ft 336kts
02-Dec-18 13:37 34.244535 -116.900501 252 20440ft 328kts
02-Dec-18 13:38 34.206655 -116.998792 258 18938ft 315kts
02-Dec-18 13:39 34.180274 -117.097130 259 17343ft 299kts
02-Dec-18 13:40 34.154534 -117.191803 259 16261ft 298kts
02-Dec-18 13:41 34.128347 -117.286807 258 14184ft 299kts
02-Dec-18 13:42 34.102017 -117.382615 259 13894ft 303kts
02-Dec-18 13:43 34.078371 -117.477714 260 12379ft 289kts
02-Dec-18 13:44 34.050193 -117.563998 253 11721ft 284kts
02-Dec-18 13:45 34.016866 -117.654985 253 10886ft 304kts
02-Dec-18 13:46 34.000191 -117.746750 270 9600ft 259kts
02-Dec-18 13:47 33.992289 -117.832518 267 8118ft 259kts
02-Dec-18 13:48 33.983851 -117.919176 266 6669ft 255kts
02-Dec-18 13:49 33.976165 -117.996866 265 5497ft 218kts
02-Dec-18 13:50 33.968468 -118.074237 265 4960ft 234kts
02-Dec-18 13:51 33.960895 -118.150259 264 3759ft 212kts
02-Dec-18 13:52 33.954486 -118.214122 264 2762ft 174kts
02-Dec-18 13:53 33.949134 -118.266952 264 1969ft 140kts
02-Dec-18 13:54 33.944926 -118.310869 263 1305ft 130kts
02-Dec-18 13:55 33.940635 -118.353142 263 632ft 126kts
02-Dec-18 13:56 33.936436 -118.394080 262 135ft 102kts
02-Dec-18 13:57 33.936364 -118.403208 295 134ft 19kts
02-Dec-18 13:58 33.936670 -118.403838 303 134ft 3kts
02-Dec-18 13:59 33.938058 -118.405236 352 134ft 18kts
02-Dec-18 14:02 33.940021 -118.404915 88 134ft 0kts

Navigation Log

Ident Type
Flight plan parsing failed, navigation log unavailable